Aérodrome :
LOGIN :

S'inscrire | Disclaimer

   EN    FR    IT 

 










Légende :    VFR   VFR Marginal   IFR   IFR Intensif   IFR Très Intensif
Visi : 
Plafond : 
>= 8 km
>= 3000ft
5 à 8 km
1000 à 3000 ft
1500m à 5 km
500 à 1000 ft
800 à 1500m
200 à 500 ft
< 800m
< 200 ft
Symboles :   Orages  Brouillard  Fortes neiges  Fortes précipitations  Vent > 20 kt
SIGMETs :   Divers  Orages  Givrage  Turbulence  Onde Orograph.  Cendres Volcan.







- Altitude de l'aérodrome : 157 ft
- Code IATA : LIL
- Voir les cartes d'approche


LFQQ - Lille Lesquin

DERNIER METAR :
  • 260500Z AUTO 16003KT CAVOK 06/05 Q1011 TEMPO OVC005

METARs EXPIRÉS :
  • 260430Z AUTO 15005KT CAVOK 07/06 Q1011 TEMPO OVC005
  • 260400Z AUTO 15004KT CAVOK 07/06 Q1010 TEMPO OVC005
  • 260330Z AUTO 16005KT CAVOK 08/06 Q1010 TEMPO OVC005
  • 260300Z AUTO 15006KT CAVOK 08/07 Q1010 TEMPO OVC005
  • 260230Z AUTO 18006KT CAVOK 08/07 Q1009 TEMPO OVC005

TAF TAF LFQQ
Valide du 26 à 00h jusqu'au 27 à 06h UTC


252300Z 2600/2706 16010KT 9999 BKN033
TEMPO 2604/2606 OVC005
BECMG 2607/2609 22010KT
TEMPO 2615/2619 3000 SHRA BKN030TCU
ATIS : +33 3 20 16 19 54
Pas de NOTAMs connus pour ce terrain.



MET'MAP, la Météo Aéronautique d'un coup d'oeil ! - Copyright ORBIFLY Décembre 2007 - Disclaimer

ORBIFLY MET'MAP TEAM :

Programmation & Développement : Alexandra Zaïnal
Conception & Développement : Baudouin d'Aumeries
Co-Programmation & Développement : Marc-Olivier Méhu
Soutien technique & logistique : Manuel Goepfert

Contact : metmap@orbifly.com




SOURCES & CREDITS :

   NOAA